Norway, Maine
Current Conditions -  °F | °C
As of 8:15 PM on Saturday 22 Nov 2014 (Local Time) from KLEW Reporting Station
Broken Clouds Broken Clouds  
Wind Chill: 29°   Ceiling: 9000
Heat Index: 36°   Visibility: 10mi
Dew Point: 10°   Wind: 8mph
Humidity: 35%   Direction: 190°S
Pressure: 29.94"   Gusts: 16mph
Location:  44.21°N, 70.54°W
Report Text: KLEW 230115Z AUTO 19007G14KT 10SM SCT050 BKN090 02/M12 A2994 RMK AO1
Loading
Personal Weather Stations






























Interactive Weather Map New forecast layout! Learn more

10-Day Weather Forecast

Advertisements
Track Severe Weather on mobile